Time;durP1;ratioP1;P1;durP2;ratioP2;P2;SDS_P1;SDS_P2;PMS_P1;PMS_P2;Temp;Humidity;BMP_temperature;BMP_pressure;BME280_temperature;BME280_humidity;BME280_pressure;Samples;Min_cycle;Max_cycle;Signal;HPM_P1;HPM_P2
2023/01/25 00:00:20;;;;;;;;;48.50;40.25;;;;;;;;4885994;28;45853;-73
2023/01/25 00:02:45;;;;;;;;;44.25;37.50;;;;;;;;4882689;29;45410;-73
2023/01/25 00:05:10;;;;;;;;;44.50;38.25;;;;;;;;4888244;29;45457;-74
2023/01/25 00:07:35;;;;;;;;;45.50;39.75;;;;;;;;4894945;28;45525;-73
2023/01/25 00:10:00;;;;;;;;;42.75;40.00;;;;;;;;4894791;28;45294;-73
2023/01/25 00:12:26;;;;;;;;;53.25;40.75;;;;;;;;4884512;28;45366;-74
2023/01/25 00:14:51;;;;;;;;;50.75;40.50;;;;;;;;4881637;29;46287;-73
2023/01/25 00:17:16;;;;;;;;;55.50;43.00;;;;;;;;4881751;29;45409;-73
2023/01/25 00:19:41;;;;;;;;;48.25;40.75;;;;;;;;4881862;29;45347;-73
2023/01/25 00:22:07;;;;;;;;;43.75;38.50;;;;;;;;4881515;29;45416;-74
2023/01/25 00:24:32;;;;;;;;;48.75;39.50;;;;;;;;4881624;29;45372;-73
2023/01/25 00:26:57;;;;;;;;;45.00;39.00;;;;;;;;4892019;29;45477;-73
2023/01/25 00:29:22;;;;;;;;;50.75;41.00;;;;;;;;4881804;29;45471;-73
2023/01/25 00:31:48;;;;;;;;;44.25;39.25;;;;;;;;4880442;29;45476;-73
2023/01/25 00:34:22;;;;;;;;;45.25;35.25;;;;;;;;4881441;29;45441;-73
2023/01/25 00:36:48;;;;;;;;;43.25;36.50;;;;;;;;4881093;29;45397;-73
2023/01/25 00:39:13;;;;;;;;;37.50;34.75;;;;;;;;4893288;29;45502;-74
2023/01/25 00:41:39;;;;;;;;;48.00;38.50;;;;;;;;4900541;28;45354;-73
2023/01/25 00:44:05;;;;;;;;;52.25;41.75;;;;;;;;4900586;28;45291;-73
2023/01/25 00:46:30;;;;;;;;;49.75;41.50;;;;;;;;4900659;28;45397;-73
2023/01/25 00:48:56;;;;;;;;;50.25;40.50;;;;;;;;4898873;29;45493;-73
2023/01/25 00:51:22;;;;;;;;;47.50;40.50;;;;;;;;4901475;28;45371;-73
2023/01/25 00:53:47;;;;;;;;;51.00;42.00;;;;;;;;4918822;28;45386;-73
2023/01/25 00:56:12;;;;;;;;;43.00;40.00;;;;;;;;4919189;28;45486;-73
2023/01/25 00:58:39;;;;;;;;;50.75;41.25;;;;;;;;4919451;28;45372;-73
2023/01/25 01:01:04;;;;;;;;;39.00;31.00;;;;;;;;4919281;28;45346;-73
2023/01/25 01:03:29;;;;;;;;;55.00;40.75;;;;;;;;4918995;28;47202;-73
2023/01/25 01:05:58;;;;;;;;;54.25;41.00;;;;;;;;4918908;28;45346;-73
2023/01/25 01:08:23;;;;;;;;;43.75;39.75;;;;;;;;4918913;28;45421;-73
2023/01/25 01:10:48;;;;;;;;;42.00;38.25;;;;;;;;4919053;28;45376;-73
2023/01/25 01:13:14;;;;;;;;;55.25;40.75;;;;;;;;4918770;28;45366;-73
2023/01/25 01:15:39;;;;;;;;;48.75;40.25;;;;;;;;4918469;28;45553;-73
2023/01/25 01:18:04;;;;;;;;;51.75;44.25;;;;;;;;4919075;28;45359;-74
2023/01/25 01:20:29;;;;;;;;;52.25;41.00;;;;;;;;4918356;28;45264;-73
2023/01/25 01:22:55;;;;;;;;;45.75;38.00;;;;;;;;4918729;28;45715;-73
2023/01/25 01:25:20;;;;;;;;;54.75;44.50;;;;;;;;4918506;28;45400;-73
2023/01/25 01:27:45;;;;;;;;;51.75;43.25;;;;;;;;4918719;28;45346;-73
2023/01/25 01:30:11;;;;;;;;;50.00;41.25;;;;;;;;4918780;28;45282;-73
2023/01/25 01:32:36;;;;;;;;;58.25;42.75;;;;;;;;4918599;28;45363;-74
2023/01/25 01:35:01;;;;;;;;;46.50;40.25;;;;;;;;4918168;28;45359;-73
2023/01/25 01:37:26;;;;;;;;;42.00;39.25;;;;;;;;4918634;28;45342;-73
2023/01/25 01:39:51;;;;;;;;;47.50;41.50;;;;;;;;4917436;28;45315;-73
2023/01/25 01:42:17;;;;;;;;;46.50;40.50;;;;;;;;4918280;28;45873;-73
2023/01/25 01:44:44;;;;;;;;;53.00;42.00;;;;;;;;4918486;28;45767;-73
2023/01/25 01:47:29;;;;;;;;;40.25;35.75;;;;;;;;4918419;28;45342;-73
2023/01/25 01:49:58;;;;;;;;;56.50;41.75;;;;;;;;4917171;28;45294;-73
2023/01/25 01:52:27;;;;;;;;;55.75;43.00;;;;;;;;4918170;28;45262;-73
2023/01/25 01:54:58;;;;;;;;;57.50;43.25;;;;;;;;4918151;28;45459;-73
2023/01/25 01:57:28;;;;;;;;;50.00;41.75;;;;;;;;4918410;28;45207;-73
2023/01/25 01:59:56;;;;;;;;;49.25;41.75;;;;;;;;4918162;28;45363;-73
2023/01/25 02:02:23;;;;;;;;;55.50;43.50;;;;;;;;4918087;28;45247;-73
2023/01/25 02:04:50;;;;;;;;;57.50;45.25;;;;;;;;4917618;28;45243;-73
2023/01/25 02:07:37;;;;;;;;;51.00;43.25;;;;;;;;4918196;28;45449;-73
2023/01/25 02:10:03;;;;;;;;;52.00;38.50;;;;;;;;4918195;28;45580;-73
2023/01/25 02:12:28;;;;;;;;;55.50;45.25;;;;;;;;4917957;28;46203;-74
2023/01/25 02:14:55;;;;;;;;;43.75;40.00;;;;;;;;4918242;28;45398;-73
2023/01/25 02:17:23;;;;;;;;;57.00;43.75;;;;;;;;4900707;28;45327;-74
2023/01/25 02:19:55;;;;;;;;;50.25;42.75;;;;;;;;4886169;28;45578;-74
2023/01/25 02:22:30;;;;;;;;;55.25;45.25;;;;;;;;4880509;29;45293;-73
2023/01/25 02:25:21;;;;;;;;;59.75;45.50;;;;;;;;4880332;29;45330;-73
2023/01/25 02:27:55;;;;;;;;;52.50;43.00;;;;;;;;4881336;29;45478;-73
2023/01/25 02:30:20;;;;;;;;;53.75;40.75;;;;;;;;4881845;29;45813;-73
2023/01/25 02:32:45;;;;;;;;;54.75;43.25;;;;;;;;4881937;29;45622;-73
2023/01/25 02:35:34;;;;;;;;;54.50;44.25;;;;;;;;4881165;29;45445;-73
2023/01/25 02:38:00;;;;;;;;;51.50;43.75;;;;;;;;4880048;29;45335;-73
2023/01/25 02:40:25;;;;;;;;;59.25;45.50;;;;;;;;4879633;29;45360;-73
2023/01/25 02:42:50;;;;;;;;;51.50;43.50;;;;;;;;4879514;29;45394;-73
2023/01/25 02:45:18;;;;;;;;;56.00;43.50;;;;;;;;4879655;29;45463;-73
2023/01/25 02:47:43;;;;;;;;;53.75;41.75;;;;;;;;4879400;29;45459;-73
2023/01/25 02:50:09;;;;;;;;;59.75;45.00;;;;;;;;4894059;29;45402;-73
2023/01/25 02:52:34;;;;;;;;;63.75;49.50;;;;;;;;4901624;28;46827;-73
2023/01/25 02:54:59;;;;;;;;;56.75;47.25;;;;;;;;4917396;28;45323;-73
2023/01/25 02:57:25;;;;;;;;;57.50;44.25;;;;;;;;4917514;28;45317;-73
2023/01/25 02:59:50;;;;;;;;;56.75;46.50;;;;;;;;4918607;28;45551;-73
2023/01/25 03:02:15;;;;;;;;;60.00;46.00;;;;;;;;4920322;28;45405;-73
2023/01/25 03:04:40;;;;;;;;;55.75;44.25;;;;;;;;4919254;28;45413;-73
2023/01/25 03:07:06;;;;;;;;;57.00;43.25;;;;;;;;4920984;28;45384;-73
2023/01/25 03:09:31;;;;;;;;;62.25;47.25;;;;;;;;4920674;28;45338;-73
2023/01/25 03:11:56;;;;;;;;;62.50;49.00;;;;;;;;4920628;28;45414;-73
2023/01/25 03:14:21;;;;;;;;;57.75;47.75;;;;;;;;4920402;28;45387;-73
2023/01/25 03:16:46;;;;;;;;;64.25;51.25;;;;;;;;4920403;28;45377;-73
2023/01/25 03:19:12;;;;;;;;;53.50;43.25;;;;;;;;4920597;28;45472;-73
2023/01/25 03:21:39;;;;;;;;;61.50;44.50;;;;;;;;4918915;28;48089;-73
2023/01/25 03:24:04;;;;;;;;;61.00;47.00;;;;;;;;4920244;28;45379;-73
2023/01/25 03:26:29;;;;;;;;;61.00;48.75;;;;;;;;4920350;28;45329;-73
2023/01/25 03:28:55;;;;;;;;;57.25;47.75;;;;;;;;4920514;28;45335;-73
2023/01/25 03:31:20;;;;;;;;;61.25;44.25;;;;;;;;4919866;28;46072;-73
2023/01/25 03:33:45;;;;;;;;;58.75;44.25;;;;;;;;4920250;28;45402;-73
2023/01/25 03:36:11;;;;;;;;;52.25;43.50;;;;;;;;4919090;28;45323;-73
2023/01/25 03:38:36;;;;;;;;;56.50;40.00;;;;;;;;4920261;28;45384;-73
2023/01/25 03:41:02;;;;;;;;;62.50;49.00;;;;;;;;4918908;28;46618;-73
2023/01/25 03:43:27;;;;;;;;;59.75;48.75;;;;;;;;4919982;28;45476;-73
2023/01/25 03:45:54;;;;;;;;;58.25;42.75;;;;;;;;4920404;28;45263;-73
2023/01/25 03:48:19;;;;;;;;;59.00;43.00;;;;;;;;4920081;28;45539;-73
2023/01/25 03:50:52;;;;;;;;;51.50;43.50;;;;;;;;4919926;28;46202;-73
2023/01/25 03:53:29;;;;;;;;;50.00;42.75;;;;;;;;4919847;28;45383;-73
2023/01/25 03:55:59;;;;;;;;;58.75;44.75;;;;;;;;4919877;28;45250;-73
2023/01/25 03:58:24;;;;;;;;;56.25;42.75;;;;;;;;4900287;28;45434;-73
2023/01/25 04:00:49;;;;;;;;;49.50;40.25;;;;;;;;4889422;29;46279;-72
2023/01/25 04:03:16;;;;;;;;;54.75;41.25;;;;;;;;4886504;29;45878;-73
2023/01/25 04:05:42;;;;;;;;;60.50;45.00;;;;;;;;4900106;29;45601;-73
2023/01/25 04:08:07;;;;;;;;;59.00;48.25;;;;;;;;4898789;28;45354;-73
2023/01/25 04:10:32;;;;;;;;;56.75;44.75;;;;;;;;4886493;29;45363;-73
2023/01/25 04:12:58;;;;;;;;;53.25;45.00;;;;;;;;4899153;28;45282;-74
2023/01/25 04:15:23;;;;;;;;;53.50;45.25;;;;;;;;4898429;28;45321;-73
2023/01/25 04:17:48;;;;;;;;;55.25;44.75;;;;;;;;4900388;29;45424;-73
2023/01/25 04:20:13;;;;;;;;;58.75;46.50;;;;;;;;4899427;28;45554;-73
2023/01/25 04:22:39;;;;;;;;;50.00;41.25;;;;;;;;4893814;28;45351;-74
2023/01/25 04:25:04;;;;;;;;;51.50;41.50;;;;;;;;4880460;29;45335;-73
2023/01/25 04:27:29;;;;;;;;;57.25;44.00;;;;;;;;4881329;29;45442;-74
2023/01/25 04:29:54;;;;;;;;;59.75;47.50;;;;;;;;4880826;29;46385;-73
2023/01/25 04:32:19;;;;;;;;;52.75;42.75;;;;;;;;4896782;29;45537;-73
2023/01/25 04:34:45;;;;;;;;;57.00;44.00;;;;;;;;4891061;28;45295;-74
2023/01/25 04:37:10;;;;;;;;;50.25;41.00;;;;;;;;4881265;29;45217;-73
2023/01/25 04:39:35;;;;;;;;;45.25;40.25;;;;;;;;4881194;29;45446;-73
2023/01/25 04:42:00;;;;;;;;;57.50;43.50;;;;;;;;4881198;29;45429;-73
2023/01/25 04:44:25;;;;;;;;;44.50;34.75;;;;;;;;4882033;29;45530;-73
2023/01/25 04:46:51;;;;;;;;;55.75;43.75;;;;;;;;4887359;29;45535;-74
2023/01/25 04:49:16;;;;;;;;;47.25;39.25;;;;;;;;4886222;28;45875;-73
2023/01/25 04:51:41;;;;;;;;;55.50;40.75;;;;;;;;4888928;28;45419;-73
2023/01/25 04:54:06;;;;;;;;;42.00;37.00;;;;;;;;4917786;28;45447;-73
2023/01/25 04:56:31;;;;;;;;;34.25;24.75;;;;;;;;4893582;28;45407;-73
2023/01/25 04:58:57;;;;;;;;;44.00;39.25;;;;;;;;4884844;28;45556;-73
2023/01/25 05:01:23;;;;;;;;;44.50;37.00;;;;;;;;4880944;29;45624;-74
2023/01/25 05:03:48;;;;;;;;;46.00;37.75;;;;;;;;4879667;29;45424;-73
2023/01/25 05:06:13;;;;;;;;;39.50;35.25;;;;;;;;4883217;29;45430;-73
2023/01/25 05:08:38;;;;;;;;;44.00;39.50;;;;;;;;4889031;29;45444;-73
2023/01/25 05:11:03;;;;;;;;;42.50;34.25;;;;;;;;4880711;29;45450;-73
2023/01/25 05:13:29;;;;;;;;;36.75;31.00;;;;;;;;4880472;29;45743;-73
2023/01/25 05:15:55;;;;;;;;;44.00;38.75;;;;;;;;4880944;29;45645;-73
2023/01/25 05:18:20;;;;;;;;;38.25;34.00;;;;;;;;4887553;29;47543;-73
2023/01/25 05:20:45;;;;;;;;;48.75;36.25;;;;;;;;4880589;29;45312;-73
2023/01/25 05:23:11;;;;;;;;;46.00;41.25;;;;;;;;4880561;29;45276;-73
2023/01/25 05:28:20;;;;;;;;;34.75;29.50;;;;;;;;4879983;29;45370;-73
2023/01/25 05:30:45;;;;;;;;;37.75;34.75;;;;;;;;4886150;29;45451;-73
2023/01/25 05:33:10;;;;;;;;;34.75;30.75;;;;;;;;4899569;28;45330;-73
2023/01/25 05:35:35;;;;;;;;;42.25;36.00;;;;;;;;4899252;28;45284;-73
2023/01/25 05:38:01;;;;;;;;;34.25;26.50;;;;;;;;4900100;28;45385;-73
2023/01/25 05:40:26;;;;;;;;;53.75;39.00;;;;;;;;4901034;28;45337;-72
2023/01/25 05:42:55;;;;;;;;;37.25;33.00;;;;;;;;4896880;28;45350;-73
2023/01/25 05:45:20;;;;;;;;;23.25;21.50;;;;;;;;4888779;29;45517;-73
2023/01/25 05:47:45;;;;;;;;;19.75;16.50;;;;;;;;4879991;29;45418;-72
2023/01/25 05:50:11;;;;;;;;;27.25;24.50;;;;;;;;4880154;29;45349;-73
2023/01/25 05:52:36;;;;;;;;;36.50;31.50;;;;;;;;4902474;28;45346;-73
2023/01/25 05:55:01;;;;;;;;;32.25;28.25;;;;;;;;4917649;28;45351;-73
2023/01/25 05:57:27;;;;;;;;;27.00;22.50;;;;;;;;4904419;28;46260;-72
2023/01/25 05:59:52;;;;;;;;;21.00;17.25;;;;;;;;4885479;29;45380;-73
2023/01/25 06:02:18;;;;;;;;;20.25;14.75;;;;;;;;4880099;29;45452;-72
2023/01/25 06:04:43;;;;;;;;;24.00;20.75;;;;;;;;4882493;29;45453;-73
2023/01/25 06:07:08;;;;;;;;;28.00;22.50;;;;;;;;4898750;29;45989;-73
2023/01/25 06:09:33;;;;;;;;;17.75;17.00;;;;;;;;4897037;29;45579;-73
2023/01/25 06:11:59;;;;;;;;;19.50;16.00;;;;;;;;4888528;29;45351;-73
2023/01/25 06:14:24;;;;;;;;;18.75;16.25;;;;;;;;4898598;28;45296;-73
2023/01/25 06:16:49;;;;;;;;;23.00;21.25;;;;;;;;4898851;28;45656;-73
2023/01/25 06:19:14;;;;;;;;;19.75;14.25;;;;;;;;4898824;28;45687;-74
2023/01/25 06:21:39;;;;;;;;;25.75;21.75;;;;;;;;4898683;28;45504;-73
2023/01/25 06:24:05;;;;;;;;;21.75;18.75;;;;;;;;4891167;28;45437;-73
2023/01/25 06:26:30;;;;;;;;;22.00;19.00;;;;;;;;4878909;29;45420;-73
2023/01/25 06:28:55;;;;;;;;;21.25;17.00;;;;;;;;4879626;29;45288;-73
2023/01/25 06:31:21;;;;;;;;;16.75;14.00;;;;;;;;4879176;29;45347;-73
2023/01/25 06:33:47;;;;;;;;;24.50;18.00;;;;;;;;4893668;29;45502;-74
2023/01/25 06:36:13;;;;;;;;;21.50;18.75;;;;;;;;4893868;29;45362;-73
2023/01/25 06:38:39;;;;;;;;;26.00;17.25;;;;;;;;4887533;28;45453;-73
2023/01/25 06:41:05;;;;;;;;;21.25;19.75;;;;;;;;4885479;29;45324;-73
2023/01/25 06:43:31;;;;;;;;;15.50;14.00;;;;;;;;4884971;29;45375;-73
2023/01/25 06:46:00;;;;;;;;;21.50;21.50;;;;;;;;4893285;29;46307;-73
2023/01/25 06:48:26;;;;;;;;;25.00;18.00;;;;;;;;4888830;29;45364;-73
2023/01/25 06:51:02;;;;;;;;;15.75;11.00;;;;;;;;4893069;28;45350;-73
2023/01/25 06:53:29;;;;;;;;;18.00;18.00;;;;;;;;4936330;28;45522;-73
2023/01/25 06:56:01;;;;;;;;;21.25;18.50;;;;;;;;4923393;28;45369;-73
2023/01/25 06:58:26;;;;;;;;;17.50;16.50;;;;;;;;4923643;28;45377;-73
2023/01/25 07:00:51;;;;;;;;;15.25;14.00;;;;;;;;4923053;28;45413;-73
2023/01/25 07:03:17;;;;;;;;;20.50;15.00;;;;;;;;4900979;28;45379;-74
2023/01/25 07:05:42;;;;;;;;;16.00;16.00;;;;;;;;4885333;29;45644;-73
2023/01/25 07:08:07;;;;;;;;;26.50;20.50;;;;;;;;4899070;28;45994;-74
2023/01/25 07:10:32;;;;;;;;;18.50;16.50;;;;;;;;4912668;28;46367;-73
2023/01/25 07:12:57;;;;;;;;;18.50;17.75;;;;;;;;4912672;28;46661;-73
2023/01/25 07:15:23;;;;;;;;;19.00;18.00;;;;;;;;4910491;28;46138;-73
2023/01/25 07:17:48;;;;;;;;;25.50;20.50;;;;;;;;4906732;28;45424;-74
2023/01/25 07:20:13;;;;;;;;;23.00;21.25;;;;;;;;4913816;28;45465;-73
2023/01/25 07:22:39;;;;;;;;;26.75;20.25;;;;;;;;4913855;28;45449;-73
2023/01/25 07:25:05;;;;;;;;;27.75;21.00;;;;;;;;4910528;28;46902;-73
2023/01/25 07:27:32;;;;;;;;;32.50;20.25;;;;;;;;4911867;28;45430;-74
2023/01/25 07:29:57;;;;;;;;;17.75;17.75;;;;;;;;4912979;28;45521;-73
2023/01/25 07:32:22;;;;;;;;;21.00;18.00;;;;;;;;4911332;28;45461;-73
2023/01/25 07:34:47;;;;;;;;;26.50;24.00;;;;;;;;4911647;28;48441;-73
2023/01/25 07:37:13;;;;;;;;;23.25;20.25;;;;;;;;4913205;28;45474;-73
2023/01/25 07:39:39;;;;;;;;;31.00;24.25;;;;;;;;4904791;28;45339;-73
2023/01/25 07:42:04;;;;;;;;;28.50;24.50;;;;;;;;4884693;29;45439;-73
2023/01/25 07:44:30;;;;;;;;;26.50;22.00;;;;;;;;4884354;29;45391;-73
2023/01/25 07:46:55;;;;;;;;;31.50;24.75;;;;;;;;4881067;29;45370;-74
2023/01/25 07:49:20;;;;;;;;;23.25;22.25;;;;;;;;4881726;29;45449;-74
2023/01/25 07:51:45;;;;;;;;;24.25;23.75;;;;;;;;4890282;28;45443;-74
2023/01/25 07:54:11;;;;;;;;;29.25;25.25;;;;;;;;4919217;28;46063;-74
2023/01/25 07:56:37;;;;;;;;;25.00;20.75;;;;;;;;4918980;28;45684;-74
2023/01/25 07:59:02;;;;;;;;;22.50;20.50;;;;;;;;4919617;28;45354;-74
2023/01/25 08:01:28;;;;;;;;;26.75;24.25;;;;;;;;4919333;28;45495;-74
2023/01/25 08:03:57;;;;;;;;;16.00;9.50;;;;;;;;4919616;28;45285;-74
2023/01/25 08:06:26;;;;;;;;;30.50;25.75;;;;;;;;4919349;28;45341;-79
2023/01/25 08:08:52;;;;;;;;;30.25;26.50;;;;;;;;4912190;28;45473;-78
2023/01/25 08:11:19;;;;;;;;;24.00;18.75;;;;;;;;4900189;28;45458;-79
2023/01/25 08:13:48;;;;;;;;;31.25;26.75;;;;;;;;4899166;28;45369;-78
2023/01/25 08:16:21;;;;;;;;;22.50;20.00;;;;;;;;4899265;29;45391;-79
2023/01/25 08:18:47;;;;;;;;;26.00;21.75;;;;;;;;4899304;29;45427;-78
2023/01/25 08:21:12;;;;;;;;;28.00;25.00;;;;;;;;4900091;28;45374;-78
2023/01/25 08:23:37;;;;;;;;;21.25;21.25;;;;;;;;4899784;28;46262;-78
2023/01/25 08:26:03;;;;;;;;;32.00;21.00;;;;;;;;4900242;28;45280;-79
2023/01/25 08:28:29;;;;;;;;;27.75;22.00;;;;;;;;4899313;29;45406;-79
2023/01/25 08:30:54;;;;;;;;;30.75;27.50;;;;;;;;4899240;29;45375;-78
2023/01/25 08:33:19;;;;;;;;;26.00;22.00;;;;;;;;4900334;28;46297;-78
2023/01/25 08:35:53;;;;;;;;;19.75;17.25;;;;;;;;4900266;28;45330;-79
2023/01/25 08:38:18;;;;;;;;;19.25;17.50;;;;;;;;4894235;28;46760;-79
2023/01/25 08:40:43;;;;;;;;;24.50;20.50;;;;;;;;4892689;28;45420;-78
2023/01/25 08:43:09;;;;;;;;;21.50;19.25;;;;;;;;4893412;28;45486;-78
2023/01/25 08:45:35;;;;;;;;;26.75;20.75;;;;;;;;4897043;28;45513;-77
2023/01/25 08:48:01;;;;;;;;;22.00;20.50;;;;;;;;4900360;28;45409;-78
2023/01/25 08:50:26;;;;;;;;;22.50;21.25;;;;;;;;4899978;28;45457;-79
2023/01/25 08:52:51;;;;;;;;;32.00;25.75;;;;;;;;4919272;28;45371;-79
2023/01/25 08:55:16;;;;;;;;;30.75;24.00;;;;;;;;4925524;28;45429;-78
2023/01/25 08:57:43;;;;;;;;;24.25;19.00;;;;;;;;4920468;28;45419;-78
2023/01/25 09:00:08;;;;;;;;;23.50;21.25;;;;;;;;4918851;28;45331;-79
2023/01/25 09:02:33;;;;;;;;;23.00;21.75;;;;;;;;4917210;28;48498;-78
2023/01/25 09:04:59;;;;;;;;;21.75;20.50;;;;;;;;4917585;28;45462;-78
2023/01/25 09:07:24;;;;;;;;;23.50;18.00;;;;;;;;4917533;28;45298;-79
2023/01/25 09:09:49;;;;;;;;;18.50;18.00;;;;;;;;4918119;28;45538;-78
2023/01/25 09:12:14;;;;;;;;;23.00;21.75;;;;;;;;4918467;28;45357;-78
2023/01/25 09:14:40;;;;;;;;;23.25;20.00;;;;;;;;4918925;28;45315;-78
2023/01/25 09:17:05;;;;;;;;;24.25;19.75;;;;;;;;4918090;28;45485;-77
2023/01/25 09:19:30;;;;;;;;;20.50;18.00;;;;;;;;4918390;28;45345;-77
2023/01/25 09:21:55;;;;;;;;;20.75;18.00;;;;;;;;4916769;28;45401;-76
2023/01/25 09:24:20;;;;;;;;;16.75;16.75;;;;;;;;4918229;28;45381;-77
2023/01/25 09:26:46;;;;;;;;;25.00;23.50;;;;;;;;4917142;28;45581;-77
2023/01/25 09:29:11;;;;;;;;;24.50;23.00;;;;;;;;4917878;28;45568;-78
2023/01/25 09:31:38;;;;;;;;;22.50;20.00;;;;;;;;4917743;28;45514;-77
2023/01/25 09:34:04;;;;;;;;;26.00;18.75;;;;;;;;4917984;28;45302;-77
2023/01/25 09:36:29;;;;;;;;;26.00;25.00;;;;;;;;4918458;28;45374;-77
2023/01/25 09:38:54;;;;;;;;;26.75;24.75;;;;;;;;4916500;28;45369;-78
2023/01/25 09:41:25;;;;;;;;;26.25;24.50;;;;;;;;4917494;28;45508;-77
2023/01/25 09:44:02;;;;;;;;;29.50;25.50;;;;;;;;4916618;28;45517;-77
2023/01/25 09:46:30;;;;;;;;;30.00;23.00;;;;;;;;4899428;28;45510;-77
2023/01/25 09:48:58;;;;;;;;;26.75;24.00;;;;;;;;4898731;28;45347;-77
2023/01/25 09:51:47;;;;;;;;;19.50;17.50;;;;;;;;4899343;28;48591;-78
2023/01/25 09:54:12;;;;;;;;;26.00;24.25;;;;;;;;4917632;28;45418;-79
2023/01/25 09:56:38;;;;;;;;;26.75;21.75;;;;;;;;4918296;28;45421;-78
2023/01/25 09:59:11;;;;;;;;;24.00;22.75;;;;;;;;4917835;28;45383;-78
2023/01/25 10:01:37;;;;;;;;;35.75;27.75;;;;;;;;4916560;28;48607;-77
2023/01/25 10:04:17;;;;;;;;;28.50;23.00;;;;;;;;4917381;28;45372;-77
2023/01/25 10:06:44;;;;;;;;;29.25;27.25;;;;;;;;4918115;28;45422;-77
2023/01/25 10:09:23;;;;;;;;;25.00;23.50;;;;;;;;4915698;28;45331;-78
2023/01/25 10:11:49;;;;;;;;;30.25;28.25;;;;;;;;4916775;28;45598;-78
2023/01/25 10:14:16;;;;;;;;;25.50;24.00;;;;;;;;4917908;28;45385;-78
2023/01/25 10:16:53;;;;;;;;;27.75;25.75;;;;;;;;4916159;28;45356;-78
2023/01/25 10:19:18;;;;;;;;;27.00;24.75;;;;;;;;4916671;28;45318;-78
2023/01/25 10:21:49;;;;;;;;;32.75;26.00;;;;;;;;4917506;28;46148;-77
2023/01/25 10:24:14;;;;;;;;;30.25;26.00;;;;;;;;4917233;28;45289;-78
2023/01/25 10:26:42;;;;;;;;;32.50;30.50;;;;;;;;4916060;28;45299;-78
2023/01/25 10:29:13;;;;;;;;;35.50;27.75;;;;;;;;4917705;28;45469;-77
2023/01/25 10:31:52;;;;;;;;;31.25;25.50;;;;;;;;4917119;28;45745;-77
2023/01/25 10:34:17;;;;;;;;;31.00;25.75;;;;;;;;4917514;28;45403;-77
2023/01/25 10:36:44;;;;;;;;;28.75;28.75;;;;;;;;4917409;28;45345;-77
2023/01/25 10:39:09;;;;;;;;;22.50;22.50;;;;;;;;4914975;28;45449;-77
2023/01/25 10:41:37;;;;;;;;;24.75;20.00;;;;;;;;4917587;28;45567;-77
2023/01/25 10:44:21;;;;;;;;;28.75;26.50;;;;;;;;4917429;28;45401;-77
2023/01/25 10:46:49;;;;;;;;;36.00;30.25;;;;;;;;4917488;28;45362;-77
2023/01/25 10:49:20;;;;;;;;;20.75;20.50;;;;;;;;4917064;28;45430;-76
2023/01/25 10:51:46;;;;;;;;;45.50;29.00;;;;;;;;4917244;28;47037;-76
2023/01/25 10:54:14;;;;;;;;;35.00;27.25;;;;;;;;4917364;28;45401;-78
2023/01/25 10:56:39;;;;;;;;;33.50;26.25;;;;;;;;4917557;28;45383;-78
2023/01/25 10:59:07;;;;;;;;;31.50;28.25;;;;;;;;4917287;28;45334;-78
2023/01/25 11:01:33;;;;;;;;;35.50;29.75;;;;;;;;4916826;28;45335;-77
2023/01/25 11:04:00;;;;;;;;;38.25;30.50;;;;;;;;4916907;28;45405;-79
2023/01/25 11:06:32;;;;;;;;;33.00;27.00;;;;;;;;4917528;28;45414;-78
2023/01/25 11:08:58;;;;;;;;;33.50;30.25;;;;;;;;4917489;28;45323;-78
2023/01/25 11:11:25;;;;;;;;;35.00;29.75;;;;;;;;4917098;28;45303;-78
2023/01/25 11:13:51;;;;;;;;;31.50;26.50;;;;;;;;4916084;28;46309;-77
2023/01/25 11:16:16;;;;;;;;;38.50;30.75;;;;;;;;4916915;28;45358;-77
2023/01/25 11:18:51;;;;;;;;;37.25;32.00;;;;;;;;4917086;28;45311;-77
2023/01/25 11:21:20;;;;;;;;;36.50;28.75;;;;;;;;4918804;28;45363;-77
2023/01/25 11:24:01;;;;;;;;;32.75;28.25;;;;;;;;4920213;28;45564;-77
2023/01/25 11:26:26;;;;;;;;;33.25;27.75;;;;;;;;4920307;28;45394;-77
2023/01/25 11:29:05;;;;;;;;;31.00;25.50;;;;;;;;4920241;28;45504;-77
2023/01/25 11:31:30;;;;;;;;;36.75;29.25;;;;;;;;4920312;28;46410;-77
2023/01/25 11:33:55;;;;;;;;;40.25;29.25;;;;;;;;4920270;28;45406;-77
2023/01/25 11:36:26;;;;;;;;;32.75;31.25;;;;;;;;4920358;28;45368;-77
2023/01/25 11:38:58;;;;;;;;;43.75;33.25;;;;;;;;4920447;28;45354;-77
2023/01/25 11:41:31;;;;;;;;;35.00;35.00;;;;;;;;4919832;28;45375;-78
2023/01/25 11:44:09;;;;;;;;;37.50;34.00;;;;;;;;4917948;28;45410;-77
2023/01/25 11:46:50;;;;;;;;;46.25;34.50;;;;;;;;4917764;28;45633;-77
2023/01/25 11:49:19;;;;;;;;;23.50;22.00;;;;;;;;4918893;28;45535;-76
2023/01/25 11:51:45;;;;;;;;;35.75;30.25;;;;;;;;4918786;28;46525;-76
2023/01/25 11:54:25;;;;;;;;;40.75;36.50;;;;;;;;4918906;28;45362;-77
2023/01/25 11:56:50;;;;;;;;;34.50;32.00;;;;;;;;4917727;28;45410;-76
2023/01/25 11:59:15;;;;;;;;;39.00;30.00;;;;;;;;4919062;28;45413;-77
2023/01/25 12:02:00;;;;;;;;;42.50;31.00;;;;;;;;4919203;28;46382;-76
2023/01/25 12:04:31;;;;;;;;;37.50;32.50;;;;;;;;4923391;28;45504;-79
2023/01/25 12:06:57;;;;;;;;;44.75;38.00;;;;;;;;4920562;28;45434;-72
2023/01/25 12:09:28;;;;;;;;;43.75;37.50;;;;;;;;4918592;28;45784;-74
2023/01/25 12:12:07;;;;;;;;;40.75;38.25;;;;;;;;4918251;28;45375;-74
2023/01/25 12:14:50;;;;;;;;;55.50;44.50;;;;;;;;4917999;28;45421;-73
2023/01/25 12:17:15;;;;;;;;;46.75;40.75;;;;;;;;4918580;28;45378;-74
2023/01/25 12:19:43;;;;;;;;;44.00;38.25;;;;;;;;4918533;28;45447;-74
2023/01/25 12:22:08;;;;;;;;;56.25;41.25;;;;;;;;4917449;28;45580;-73
2023/01/25 12:24:52;;;;;;;;;45.00;36.25;;;;;;;;4918419;28;45442;-73
2023/01/25 12:27:36;;;;;;;;;43.75;39.00;;;;;;;;4918144;28;45418;-73
2023/01/25 12:30:10;;;;;;;;;37.50;31.50;;;;;;;;4918381;28;45419;-73
2023/01/25 12:32:41;;;;;;;;;55.50;36.75;;;;;;;;4917170;28;45589;-73
2023/01/25 12:35:22;;;;;;;;;43.00;38.50;;;;;;;;4919491;28;45277;-75
2023/01/25 12:37:48;;;;;;;;;47.50;33.75;;;;;;;;4919487;28;45354;-75
2023/01/25 12:40:40;;;;;;;;;41.25;38.25;;;;;;;;4919499;28;45475;-76
2023/01/25 12:43:08;;;;;;;;;52.50;42.25;;;;;;;;4917592;28;46239;-77
2023/01/25 12:45:36;;;;;;;;;51.00;39.75;;;;;;;;4919165;28;45467;-76
2023/01/25 12:48:12;;;;;;;;;61.00;48.50;;;;;;;;4919348;28;45322;-77
2023/01/25 12:50:49;;;;;;;;;48.25;41.25;;;;;;;;4919506;28;45473;-77
2023/01/25 12:53:26;;;;;;;;;60.50;45.25;;;;;;;;4919162;28;45552;-77
2023/01/25 12:55:52;;;;;;;;;61.50;45.50;;;;;;;;4919076;28;45393;-77
2023/01/25 12:58:17;;;;;;;;;56.75;44.00;;;;;;;;4918966;28;45347;-76
2023/01/25 13:00:48;;;;;;;;;62.25;48.25;;;;;;;;4919443;28;45369;-76
2023/01/25 13:03:22;;;;;;;;;57.50;44.75;;;;;;;;4918927;28;46341;-76
2023/01/25 13:05:53;;;;;;;;;59.25;45.75;;;;;;;;4917507;28;45715;-76
2023/01/25 13:08:21;;;;;;;;;59.50;49.75;;;;;;;;4917452;28;45427;-77
2023/01/25 13:10:52;;;;;;;;;58.25;46.50;;;;;;;;4917652;28;45450;-76
2023/01/25 13:13:24;;;;;;;;;47.00;39.75;;;;;;;;4918906;28;45961;-76
2023/01/25 13:15:50;;;;;;;;;56.00;45.25;;;;;;;;4918844;28;45469;-76
2023/01/25 13:18:27;;;;;;;;;45.50;40.50;;;;;;;;4918584;28;45275;-76
2023/01/25 13:20:53;;;;;;;;;60.75;48.00;;;;;;;;4919106;28;45354;-76
2023/01/25 13:23:28;;;;;;;;;63.25;47.50;;;;;;;;4917365;28;46645;-76
2023/01/25 13:26:13;;;;;;;;;60.00;49.50;;;;;;;;4918969;28;45452;-77
2023/01/25 13:28:40;;;;;;;;;57.50;42.75;;;;;;;;4918615;28;45406;-77
2023/01/25 13:31:05;;;;;;;;;61.75;47.75;;;;;;;;4918977;28;45749;-77
2023/01/25 13:33:31;;;;;;;;;62.50;46.00;;;;;;;;4918242;28;46818;-77
2023/01/25 13:35:56;;;;;;;;;64.75;50.75;;;;;;;;4918441;28;45376;-78
2023/01/25 13:38:27;;;;;;;;;58.25;43.25;;;;;;;;4918632;28;45411;-77
2023/01/25 13:41:13;;;;;;;;;52.50;43.50;;;;;;;;4918411;28;45288;-76
2023/01/25 13:43:40;;;;;;;;;72.75;53.25;;;;;;;;4917721;28;45397;-74
2023/01/25 13:46:07;;;;;;;;;62.50;48.00;;;;;;;;4917886;28;45498;-75
2023/01/25 13:48:34;;;;;;;;;62.50;47.00;;;;;;;;4918441;28;45536;-75
2023/01/25 13:51:09;;;;;;;;;59.50;46.50;;;;;;;;4917162;28;45575;-75
2023/01/25 13:53:38;;;;;;;;;60.50;43.25;;;;;;;;4917786;28;45594;-75
2023/01/25 13:56:03;;;;;;;;;57.50;45.00;;;;;;;;4916836;28;45405;-74
2023/01/25 13:58:30;;;;;;;;;65.00;50.00;;;;;;;;4918525;28;45453;-75
2023/01/25 14:01:02;;;;;;;;;62.25;51.50;;;;;;;;4918152;28;45418;-74
2023/01/25 14:03:29;;;;;;;;;62.00;48.25;;;;;;;;4918071;28;45399;-76
2023/01/25 14:05:56;;;;;;;;;68.75;50.25;;;;;;;;4916841;28;45587;-77
2023/01/25 14:08:22;;;;;;;;;66.75;51.75;;;;;;;;4897919;28;45589;-76
2023/01/25 14:10:48;;;;;;;;;62.50;49.75;;;;;;;;4896975;29;45350;-74
2023/01/25 14:13:15;;;;;;;;;69.00;51.75;;;;;;;;4899064;28;46327;-75
2023/01/25 14:15:50;;;;;;;;;62.75;49.00;;;;;;;;4898742;28;45505;-74
2023/01/25 14:18:19;;;;;;;;;57.50;44.75;;;;;;;;4898472;28;45247;-76
2023/01/25 14:20:48;;;;;;;;;63.00;45.75;;;;;;;;4899598;28;45479;-74